McKean County Weather on FaceBook
Current Metar reports for airports in our Region

Nearby METAR Reports

Metar reports(Meteorological Terminal Aviation Routine) are mainly used by pilots for information on what is happening at their destination during their pre-flight weather briefings and by meteorologists to assist in short term forecasts. A raw Metar is one of the most universal ways to communicate weather information in the world and are usually transmitted by airports, but some come from permanent sanctioned weather observatories.

Listed below are Metars from airports within 100 miles of our station here in Smethport Pa. The first one of course is the Bradford Regional Airport, then the Olean NY airport and so on. Each airport has it's own table to display it's data and at the bottom of the table is 'Raw' Metar for each airport. Most pilots and weather forecasters can look at the raw data and tell you what is up, but we use a script that handles all of the details for us.

KBFD - Bradford, Pennsylvania, USA
Distance from station: NW 7mi, 11km
Updated: Fri, 02-Dec-2022 9:53pm EST
Mostly Cloudy
Mostly Cloudy
 Wind from SSE
Wind: SSE 13 mph , 20 km/h, Gust: 20 mph , 31 km/h
Temperature: 39°F , 4°C
Wind Chill: 31°F , -1°C
Dew Point: 21°F , -6°C
Humidity: 48%
Barometer: 30.09 inHg , 1019 hPa
Clouds: Mostly Cloudy
Visibility: 10 miles , 16 km
Cloud details: Mostly Cloudy 9000 ft
2022/12/03 02:53 KBFD 030253Z AUTO 15011G17KT 10SM BKN090 04/M06 A3009 RMK AO2 SLP207 T00391061 58019
KOLE - Olean, New York, USA
Distance from station: NNE 37mi, 59km
Updated: Fri, 02-Dec-2022 9:55pm EST
Mostly Cloudy
Mostly Cloudy
 Wind from S
Wind: S 12 mph , 19 km/h, Gust: 18 mph , 30 km/h
Temperature: 34°F , 1°C
Wind Chill: 25°F , -4°C
Dew Point: 21°F , -6°C
Humidity: 60%
Barometer: 30.06 inHg , 1017.9 hPa
Clouds: Mostly Cloudy
Visibility: 10 miles , 16 km
Cloud details: Mostly Cloudy 9000 ft
2022/12/03 02:55 KOLE 030255Z AUTO 19010G16KT 10SM BKN090 01/M06 A3006 RMK AO2
 
KELZ - Wellsville, New York, USA
Distance from station: NE 40mi, 64km
Updated: Fri, 02-Dec-2022 9:56pm EST
Partly Cloudy
Partly Cloudy
 
Temperature: 37°F , 3°C
Dew Point: 19°F , -7°C
Humidity: 48%
Barometer: 30.10 inHg , 1019.3 hPa
Clouds: Partly Cloudy
Visibility: 10 miles , 16 km
Cloud details: Partly Cloudy 10000 ft
2022/12/03 02:56 KELZ 030256Z AUTO 10SM SCT100 03/M07 A3010 RMK AO2 PK WND 18029/0237 SLP211 T00331067 56023 $
KDUJ - Du Bois, Pennsylvania, USA
Distance from station: SSW 42mi, 68km
Updated: Fri, 02-Dec-2022 9:53pm EST
Overcast
Overcast
 Wind from SE
Wind: SE 14 mph , 22 km/h
Temperature: 41°F , 5°C
Wind Chill: 33°F , 1°C
Dew Point: 19°F , -7°C
Humidity: 42%
Barometer: 30.12 inHg , 1020 hPa
Clouds: Overcast
Visibility: 10 miles , 16 km
Cloud details: Overcast 9000 ft
2022/12/03 02:53 KDUJ 030253Z AUTO 14012KT 10SM OVC090 05/M07 A3012 RMK AO2 SLP213 T00501067 58017
 
KJHW - Jamestown, New York, USA
Distance from station: NW 46mi, 75km
Updated: Fri, 02-Dec-2022 9:56pm EST
Few Clouds
Few Clouds
 Wind from S
Wind: S 14 mph , 22 km/h, Gust: 21 mph , 33 km/h
Temperature: 41°F , 5°C
Wind Chill: 33°F , 1°C
Dew Point: 21°F , -6°C
Humidity: 45%
Barometer: 30.01 inHg , 1016.3 hPa
Clouds: Few Clouds
Visibility: 10 miles , 16 km
Cloud details: Few Clouds 8500 ft
2022/12/03 02:56 KJHW 030256Z AUTO 17012G18KT 10SM FEW085 05/M06 A3001 RMK AO2 SLP181 T00501061 58029
KFIG - Clearfield, Pennsylvania, USA
Distance from station: S 47mi, 75km
Updated: Fri, 02-Dec-2022 9:54pm EST
Mostly Cloudy
Mostly Cloudy
 Wind from SE
Wind: SE 3 mph , 6 km/h
Temperature: 37°F , 3°C
Dew Point: 21°F , -6°C
Humidity: 52%
Barometer: 30.19 inHg , 1022.4 hPa
Clouds: Mostly Cloudy
Visibility: 10 miles , 16 km
Cloud details: Mostly Cloudy 11000 ft
2022/12/03 02:54 KFIG 030254Z AUTO 13003KT 10SM BKN110 03/M06 A3019 RMK AO2 SLP237 T00331056 58020
 
KDKK - Dunkirk, New York, USA
Distance from station: NW 66mi, 106km
Updated: Fri, 02-Dec-2022 9:53pm EST
Light rain, Partly cloudy
Light rain, Partly cloudy
 Wind from S
Wind: S 37 mph , 59 km/h, Gust: 53 mph , 85 km/h
Temperature: 52°F , 11°C
Dew Point: 18°F , -8°C
Humidity: 26%
Barometer: 29.91 inHg , 1012.9 hPa
Summary: Light Rain
Clouds: Partly Cloudy
Visibility: 10 miles , 16 km
Cloud details: Partly Cloudy 11000 ft
2022/12/03 02:53 KDKK 030253Z AUTO 17032G46KT 10SM -RA SCT110 11/M08 A2991 RMK AO2 PK WND 19047/0229 SLP132 P0000 60000 T01111078 56038
KUNV - State College, Pennsylvania, USA
Distance from station: SSE 71mi, 114km
Updated: Fri, 02-Dec-2022 9:53pm EST
Clear
Clear
 Wind from W
Wind: W 7 mph , 11 km/h
Temperature: 39°F , 4°C
Wind Chill: 34°F , 1°C
Dew Point: 23°F , -5°C
Humidity: 52%
Barometer: 30.26 inHg , 1024.7 hPa
Clouds: Clear
Visibility: 10 miles , 16 km
2022/12/03 02:53 KUNV 030253Z 26006KT 10SM CLR 04/M05 A3026
 
KFKL - Franklin, Pennsylvania, USA
Distance from station: WSW 72mi, 116km
Updated: Fri, 02-Dec-2022 9:56pm EST
Few Clouds
Few Clouds
 Wind from SSE
Wind: SSE 15 mph , 24 km/h
Temperature: 43°F , 6°C
Wind Chill: 36°F , 2°C
Dew Point: 21°F , -6°C
Humidity: 42%
Barometer: 30.04 inHg , 1017.3 hPa
Clouds: Few Clouds
Visibility: 10 miles , 16 km
Cloud details: Few Clouds 9000 ft
2022/12/03 02:56 KFKL 030256Z AUTO 15013KT 10SM FEW090 06/M06 A3004 RMK AO2 SLP185 T00611061 58030
KDSV - Dansville, New York, USA
Distance from station: NE 73mi, 117km
Updated: Fri, 02-Dec-2022 9:54pm EST
Clear
Clear
 Wind from SE
Wind: SE 14 mph , 22 km/h, Gust: 23 mph , 37 km/h
Temperature: 45°F , 7°C
Wind Chill: 39°F , 4°C
Dew Point: 21°F , -6°C
Humidity: 39%
Barometer: 30.08 inHg , 1018.6 hPa
Clouds: Clear
Visibility: 10 miles , 16 km
2022/12/03 02:54 KDSV 030254Z AUTO 14012G20KT 10SM CLR 07/M06 A3008 RMK AO2 SLP198 T00671061 56028
 
KIDI - Indiana/Stewart, Pennsylvania, USA
Distance from station: SSW 81mi, 130km
Updated: Fri, 02-Dec-2022 9:55pm EST
Mostly Cloudy
Mostly Cloudy
 Wind from SSE
Wind: SSE 14 mph , 22 km/h, Gust: 20 mph , 31 km/h
Temperature: 46°F , 8°C
Wind Chill: 40°F , 4°C
Dew Point: 21°F , -6°C
Humidity: 37%
Barometer: 30.16 inHg , 1021.3 hPa
Clouds: Mostly Cloudy
Visibility: 10 miles , 16 km
Cloud details: Few Clouds 8000 ft
Mostly Cloudy 9000 ft
Mostly Cloudy 11000 ft
2022/12/03 02:55 KIDI 030255Z AUTO 16012G17KT 10SM FEW080 BKN090 BKN110 08/M06 A3016 RMK A01
KBUF - Buffalo/Cheektow, New York, USA
Distance from station: N 84mi, 136km
Updated: Fri, 02-Dec-2022 9:54pm EST
Overcast
Overcast
 Wind from SSW
Wind: SSW 14 mph , 22 km/h, Gust: 25 mph , 41 km/h
Temperature: 52°F , 11°C
Dew Point: 19°F , -7°C
Humidity: 28%
Barometer: 29.95 inHg , 1014.2 hPa
Clouds: Overcast
Visibility: 10 miles , 16 km
Cloud details: Few Clouds 6500 ft
Partly Cloudy 9500 ft
Overcast 12000 ft
2022/12/03 02:54 KBUF 030254Z 20012G22KT 10SM FEW065 SCT095 OVC120 11/M07 A2995 RMK AO2 PK WND 16028/0222 SLP148 T01061072 56035
 
KGKJ - Meadville, Pennsylvania, USA
Distance from station: W 86mi, 138km
Updated: Fri, 02-Dec-2022 9:53pm EST
Overcast
Overcast
 Wind from varies
Wind: varies 7 mph , 11 km/h, Gust: 16 mph , 26 km/h
Temperature: 52°F , 11°C
Dew Point: 18°F , -8°C
Humidity: 26%
Barometer: 30.00 inHg , 1015.9 hPa
Clouds: Overcast
Visibility: 10 miles , 16 km
Cloud details: Few Clouds 6000 ft
Partly Cloudy 8000 ft
Overcast 9000 ft
2022/12/03 02:53 KGKJ 030253Z AUTO VRB06G14KT 10SM FEW060 SCT080 OVC090 11/M08 A3000 RMK AO2 SLP166 T01061083 56026
KERI - Erie, Pennsylvania, USA
Distance from station: WNW 87mi, 140km
Updated: Fri, 02-Dec-2022 9:51pm EST
Mostly Cloudy
Mostly Cloudy
 Wind from S
Wind: S 23 mph , 37 km/h, Gust: 31 mph , 50 km/h
Temperature: 54°F , 12°C
Dew Point: 19°F , -7°C
Humidity: 26%
Barometer: 29.91 inHg , 1012.9 hPa
Clouds: Mostly Cloudy
Visibility: 10 miles , 16 km
Cloud details: Partly Cloudy 9000 ft
Mostly Cloudy 12000 ft
2022/12/03 02:51 KERI 030251Z 17020G27KT 10SM SCT090 BKN120 12/M07 A2991 RMK AO2 PK WND 18034/0208 SLP133 T01171072 58030
 
KELM - Elmira, New York, USA
Distance from station: ENE 90mi, 145km
Updated: Fri, 02-Dec-2022 9:53pm EST
Clear
Clear
 Wind from S
Wind: S 8 mph , 13 km/h
Temperature: 37°F , 3°C
Wind Chill: 31°F , -1°C
Dew Point: 23°F , -5°C
Humidity: 56%
Barometer: 30.19 inHg , 1022.4 hPa
Clouds: Clear
Visibility: 10 miles , 16 km
2022/12/03 02:53 KELM 030253Z 19007KT 10SM CLR 03/M05 A3019 RMK AO2 SLP233 60000 T00331050 56022
KIPT - Williamsport, Pennsylvania, USA
Distance from station: ESE 91mi, 146km
Updated: Fri, 02-Dec-2022 9:54pm EST
Few Clouds
Few Clouds
 Wind from ENE
Wind: ENE 14 mph , 22 km/h, Gust: 31 mph , 50 km/h
Temperature: 39°F , 4°C
Wind Chill: 31°F , -1°C
Dew Point: 27°F , -3°C
Humidity: 61%
Barometer: 30.29 inHg , 1025.7 hPa
Clouds: Few Clouds
Visibility: 10 miles , 16 km
Cloud details: Few Clouds 12000 ft
2022/12/03 02:54 KIPT 030254Z 06012G27KT 10SM FEW120 04/M03 A3029 RMK AO2 PK WND 10027/0247 SLP264 T00441033 56016
 
KBTP - Butler Co., Pennsylvania, USA
Distance from station: SW 98mi, 157km
Updated: Fri, 02-Dec-2022 9:56pm EST
Overcast
Overcast
 Wind from SE
Wind: SE 7 mph , 11 km/h
Temperature: 48°F , 9°C
Wind Chill: 45°F , 7°C
Dew Point: 21°F , -6°C
Humidity: 34%
Barometer: 30.08 inHg , 1018.6 hPa
Clouds: Overcast
Visibility: 10 miles , 16 km
Cloud details: Partly Cloudy 6000 ft
Mostly Cloudy 7500 ft
Overcast 11000 ft
2022/12/03 02:56 KBTP 030256Z AUTO 14006KT 10SM SCT060 BKN075 OVC110 09/M06 A3008 RMK AO2 SLP200 T00891061 57025 TSNO
KAOO - Altoona, Pennsylvania, USA
Distance from station: S 99mi, 159km
Updated: Fri, 02-Dec-2022 9:53pm EST
Partly Cloudy
Partly Cloudy
 Wind from SSW
Wind: SSW 5 mph , 7 km/h
Temperature: 39°F , 4°C
Wind Chill: 35°F , 2°C
Dew Point: 23°F , -5°C
Humidity: 52%
Barometer: 30.24 inHg , 1024 hPa
Clouds: Partly Cloudy
Visibility: 10 miles , 16 km
Cloud details: Partly Cloudy 12000 ft
2022/12/03 02:53 KAOO 030253Z AUTO 20004KT 10SM SCT120 04/M05 A3024 RMK AO2 SLP255 T00441050 56016
 
KPIT - Pittsburg, Pennsylvania, USA
Distance from station: SSW 126mi, 203km
Updated: Fri, 02-Dec-2022 9:51pm EST
Overcast
Overcast
 Wind from S
Wind: S 7 mph , 11 km/h
Temperature: 52°F , 11°C
Dew Point: 14°F , -10°C
Humidity: 22%
Barometer: 30.08 inHg , 1018.6 hPa
Clouds: Overcast
Visibility: 10 miles , 16 km
Cloud details: Mostly Cloudy 6500 ft
Overcast 9000 ft
2022/12/03 02:51 KPIT 030251Z 18006KT 10SM BKN065 OVC090 11/M10 A3008 RMK AO2 SLP201 T01061100 58020
KCLE - Cleveland, Ohio, USA
Distance from station: WSW 160mi, 258km
Updated: Fri, 02-Dec-2022 9:51pm EST
Overcast
Overcast
 Wind from S
Wind: S 22 mph , 35 km/h, Gust: 32 mph , 52 km/h
Temperature: 52°F , 11°C
Dew Point: 34°F , 1°C
Humidity: 50%
Barometer: 29.90 inHg , 1012.5 hPa
Clouds: Overcast
Visibility: 10 miles , 16 km
Cloud details: Mostly Cloudy 5500 ft
Overcast 7000 ft
2022/12/03 02:51 KCLE 030251Z 19019G28KT 10SM BKN055 OVC070 11/01 A2990 RMK AO2 PK WND 20032/0228 RAB15E44 SLP143 P0001 60001 T01060006 56026